< Typhoon 199415 1994 Season Typhoon 199417 >
Typhoon 199416 (FRED)
General InformationTrack Information on Google MapsDetailed Wind InformationList of All Images || Disaster Info.ResourceGoogle EarthGE AnimationAtom FeedGeoJSON
Detalied Best Track (Time Zone = UTC)
Year Month Day Hour Lat. Long. Pressure (hPa) Wind (kt) Class Image Chart
1994 8 14 00 17.5 147.0 1004 0 2 Image Chart
1994 8 14 06 17.6 146.0 1000 0 2 Image Chart
1994 8 14 12 17.7 145.0 1000 0 2 Image Chart
1994 8 14 18 17.9 144.0 1000 0 2 Image Chart
1994 8 15 00 18.3 142.7 996 35 3 Image Chart
1994 8 15 06 18.5 141.5 992 40 3 Image Chart
1994 8 15 12 18.5 140.6 990 45 3 Image Chart
1994 8 15 18 18.3 139.8 985 50 4 Image Chart
1994 8 16 00 18.0 139.3 980 55 4 Image Chart
1994 8 16 06 17.8 138.5 980 55 4 Image Chart
1994 8 16 12 17.6 137.3 975 60 4 Image Chart
1994 8 16 18 17.6 136.2 970 65 5 Image Chart
1994 8 17 00 17.8 135.2 970 65 5 Image Chart
1994 8 17 06 18.1 134.0 965 70 5 Image Chart
1994 8 17 12 18.4 133.0 960 70 5 Image Chart
1994 8 17 18 18.7 132.1 955 75 5 Image Chart
1994 8 18 00 19.0 131.3 955 75 5 Image Chart
1994 8 18 06 19.5 130.7 950 80 5 Image Chart
1994 8 18 12 20.1 130.0 950 80 5 Image Chart
1994 8 18 18 20.9 129.0 945 85 5 Image Chart
1994 8 19 00 21.2 128.0 935 90 5 Image Chart
1994 8 19 06 21.8 127.0 930 95 5 Image Chart
1994 8 19 09 22.0 126.5 930 95 5 Image Chart
1994 8 19 12 22.2 126.0 925 100 5 Image Chart
1994 8 19 15 22.3 125.6 925 100 5 Image Chart
1994 8 19 18 22.4 125.2 925 100 5 Image Chart
1994 8 19 21 22.6 125.0 925 100 5 Image Chart
1994 8 20 00 22.9 124.9 925 100 5 Image Chart
1994 8 20 03 23.2 124.8 925 100 5 Image Chart
1994 8 20 06 23.6 124.7 930 95 5 Image Chart
1994 8 20 09 24.0 124.6 930 95 5 Image Chart
1994 8 20 12 24.4 124.5 935 90 5 Image Chart
1994 8 20 15 24.9 124.2 935 90 5 Image Chart
1994 8 20 18 25.6 123.8 940 85 5 Image Chart
1994 8 20 21 26.1 123.4 940 85 5 Image Chart
1994 8 21 00 26.5 122.8 945 85 5 Image Chart
1994 8 21 06 27.0 122.0 950 80 5 Image Chart
1994 8 21 12 27.5 121.2 955 75 5 Image Chart
1994 8 21 18 28.0 120.0 980 50 4 Image Chart
1994 8 22 00 28.7 118.5 994 35 3 Image Chart
1994 8 22 06 29.4 117.1 998 0 2 Image Chart
1994 8 22 12 30.0 116.0 1002 0 2 Image Chart
1994 8 22 18 30.7 115.3 1002 0 2 Image Chart
1994 8 23 00 31.2 115.0 1004 0 2 Image Chart
1994 8 23 06 32.0 114.9 1004 0 2 Image Chart
1994 8 23 12 33.0 115.2 1006 0 2 Image Chart
1994 8 23 18 34.0 115.8 1006 0 2 Image Chart
1994 8 24 00 35.0 117.2 1004 0 6 Image Chart
1994 8 24 06 36.0 119.1 1004 0 6 Image Chart
1994 8 24 12 36.8 121.0 1004 0 6 Image Chart
1994 8 24 18 37.5 122.2 1004 0 6 Image Chart
1994 8 25 00 38.2 123.8 1004 0 6 Image Chart
1994 8 25 06 38.7 125.7 1004 0 6 Image Chart
1994 8 25 12 39.0 127.5 1006 0 6 Image Chart
1994 8 25 18 40.0 130.0 1006 0 6 Image Chart
1994 8 26 00 40.8 132.5 1006 0 6 Image Chart
1994 8 26 06 41.3 135.0 1006 0 6 Image Chart
1994 8 26 12 42.0 137.0 1008 0 6 Image Chart
Japan Meteorological Agency Best Track Data | Correction Date : 1995-01-30
< Typhoon 199415 1994 Season Typhoon 199417 >

Help